createdAt,value
2022-09-12T00:02:34.323Z,15.18
2022-09-12T00:08:20.930Z,12.93
2022-09-12T00:14:10.796Z,12.20
2022-09-12T00:19:57.666Z,13.93
2022-09-12T00:25:45.770Z,11.75
2022-09-12T00:31:32.665Z,11.95
2022-09-12T00:37:19.265Z,11.50
2022-09-12T00:43:06.620Z,16.70
2022-09-12T00:49:04.163Z,11.80
2022-09-12T00:55:02.716Z,9.98
2022-09-12T01:00:49.890Z,13.43
2022-09-12T01:06:40.507Z,19.40
2022-09-12T01:12:27.360Z,15.40
2022-09-12T01:18:30.482Z,13.65
2022-09-12T01:24:20.206Z,13.30
2022-09-12T01:30:21.097Z,16.95
2022-09-12T01:36:42.931Z,17.20
2022-09-12T01:42:35.049Z,23.17
2022-09-12T01:48:27.989Z,14.17
2022-09-12T01:54:21.357Z,15.77
2022-09-12T02:00:11.550Z,17.02
2022-09-12T02:06:08.203Z,14.55
2022-09-12T02:11:59.149Z,25.63
2022-09-12T02:17:49.488Z,15.40
2022-09-12T02:23:46.165Z,16.23
2022-09-12T02:29:32.831Z,12.48
2022-09-12T02:35:33.935Z,13.30
2022-09-12T02:41:21.723Z,12.73
2022-09-12T02:47:17.114Z,14.60
2022-09-12T02:53:05.619Z,14.63
2022-09-12T02:58:52.980Z,15.25
2022-09-12T03:04:51.631Z,23.27
2022-09-12T03:10:50.765Z,21.75
2022-09-12T03:16:43.282Z,20.13
2022-09-12T03:22:53.426Z,17.42
2022-09-12T03:28:42.502Z,9.93
2022-09-12T03:34:29.162Z,13.88
2022-09-12T03:40:15.830Z,10.15
2022-09-12T03:46:02.577Z,17.52
2022-09-12T03:51:49.242Z,9.55
2022-09-12T03:57:35.897Z,15.50
2022-09-12T04:03:22.732Z,16.20
2022-09-12T04:09:09.552Z,12.57
2022-09-12T04:14:56.132Z,14.57
2022-09-12T04:20:42.682Z,12.32
2022-09-12T04:26:29.911Z,13.73
2022-09-12T04:32:16.663Z,12.38
2022-09-12T04:38:03.875Z,14.95
2022-09-12T04:44:16.769Z,16.33
2022-09-12T04:50:03.606Z,10.43
2022-09-12T04:55:50.179Z,12.23
2022-09-12T05:01:37.121Z,13.07
2022-09-12T05:07:23.934Z,13.57
2022-09-12T05:13:10.555Z,10.75
2022-09-12T05:18:58.364Z,9.88
2022-09-12T05:24:49.873Z,11.27
2022-09-12T05:30:37.152Z,7.85
2022-09-12T05:36:26.783Z,13.73
2022-09-12T05:42:13.411Z,8.55
2022-09-12T05:47:59.979Z,8.13
2022-09-12T05:53:48.855Z,9.02
2022-09-12T05:59:35.681Z,6.68
2022-09-12T06:05:22.786Z,13.35
2022-09-12T06:11:11.661Z,5.32
2022-09-12T06:16:58.401Z,4.90
2022-09-12T06:22:45.097Z,4.00
2022-09-12T06:28:32.883Z,9.85
2022-09-12T06:34:19.951Z,9.00
2022-09-12T06:40:08.535Z,6.28
2022-09-12T06:45:55.291Z,4.80
2022-09-12T06:51:42.611Z,4.32
2022-09-12T06:57:31.403Z,4.47
2022-09-12T07:03:18.589Z,6.75
2022-09-12T07:09:07.136Z,4.00
2022-09-12T07:14:53.839Z,6.57
2022-09-12T07:20:40.987Z,6.75
2022-09-12T07:26:29.482Z,8.38
2022-09-12T07:32:16.118Z,5.00
2022-09-12T07:38:02.983Z,11.55
2022-09-12T07:44:00.511Z,6.03
2022-09-12T07:49:47.658Z,5.35
2022-09-12T07:55:34.290Z,4.68
2022-09-12T08:01:24.797Z,8.27
2022-09-12T08:07:12.034Z,3.90
2022-09-12T08:12:59.027Z,6.22
2022-09-12T08:18:45.820Z,2.75
2022-09-12T08:24:32.656Z,6.07
2022-09-12T08:30:19.348Z,4.53
2022-09-12T08:36:21.342Z,6.05
2022-09-12T08:48:04.777Z,3.35
2022-09-12T08:53:54.676Z,3.33
2022-09-12T08:59:44.812Z,2.65
2022-09-12T09:05:40.284Z,4.88
2022-09-12T09:11:52.591Z,4.15
2022-09-12T09:17:43.345Z,2.45
2022-09-12T09:23:34.850Z,1.38
2022-09-12T09:29:26.746Z,3.83
2022-09-12T09:35:18.766Z,7.37
2022-09-12T09:41:30.122Z,2.70
2022-09-12T09:47:18.863Z,3.47
2022-09-12T09:53:10.418Z,4.45
2022-09-12T09:58:57.249Z,1.48
2022-09-12T10:04:55.180Z,7.63
2022-09-12T10:11:03.735Z,2.85
2022-09-12T10:16:53.308Z,1.80
2022-09-12T10:22:40.006Z,1.33
2022-09-12T10:28:39.743Z,8.68
2022-09-12T10:34:39.288Z,2.45
2022-09-12T10:40:37.775Z,2.90
2022-09-12T10:46:29.461Z,0.70
2022-09-12T10:52:25.656Z,2.97
2022-09-12T10:58:22.461Z,7.60
2022-09-12T11:04:30.713Z,1.40
2022-09-12T11:10:17.258Z,3.33
2022-09-12T11:16:16.179Z,3.35
2022-09-12T11:22:11.778Z,2.58
2022-09-12T11:28:18.670Z,1.35
2022-09-12T11:34:10.271Z,4.00
2022-09-12T11:40:02.779Z,3.17
2022-09-12T11:45:51.004Z,2.78
2022-09-12T11:52:13.113Z,1.60
2022-09-12T11:58:00.047Z,5.78
2022-09-12T12:03:48.921Z,1.48
2022-09-12T12:09:36.462Z,1.20
2022-09-12T12:15:25.243Z,1.55
2022-09-12T12:21:29.411Z,2.30
2022-09-12T12:40:29.691Z,4.10
2022-09-12T12:46:23.950Z,1.67
2022-09-12T12:52:17.775Z,2.08
2022-09-12T12:58:19.475Z,2.35
2022-09-12T13:04:15.736Z,4.67
2022-09-12T13:10:04.379Z,1.10
2022-09-12T13:15:52.755Z,1.15
2022-09-12T13:21:39.526Z,3.25
2022-09-12T13:27:26.290Z,6.68
2022-09-12T13:33:28.531Z,9.65
2022-09-12T13:39:27.710Z,1.73
2022-09-12T13:45:14.269Z,1.45
2022-09-12T13:51:03.443Z,1.85
2022-09-12T13:56:50.186Z,14.80
2022-09-12T14:02:37.144Z,0.85
2022-09-12T14:08:24.111Z,2.22
2022-09-12T14:14:31.430Z,5.28
2022-09-12T14:20:20.418Z,2.13
2022-09-12T14:26:12.302Z,1.13
2022-09-12T14:32:04.286Z,1.58
2022-09-12T14:37:51.727Z,2.47
2022-09-12T14:43:44.354Z,1.38
2022-09-12T14:49:34.984Z,2.00
2022-09-12T14:55:46.413Z,2.30
2022-09-12T15:01:33.084Z,2.33
2022-09-12T15:07:59.505Z,2.00
2022-09-12T15:13:46.417Z,4.60
2022-09-12T15:19:33.131Z,4.90
2022-09-12T15:25:19.972Z,1.38
2022-09-12T15:31:12.260Z,1.13
2022-09-12T15:36:58.849Z,4.53
2022-09-12T15:42:45.517Z,7.47
2022-09-12T15:48:32.924Z,1.17
2022-09-12T15:54:20.789Z,1.95
2022-09-12T16:00:08.022Z,4.20
2022-09-12T16:06:01.689Z,2.83
2022-09-12T16:11:50.337Z,4.53
2022-09-12T16:17:37.084Z,2.72
2022-09-12T16:23:24.677Z,3.35
2022-09-12T16:29:13.722Z,1.73
2022-09-12T16:35:00.905Z,3.90
2022-09-12T16:40:47.712Z,4.25
2022-09-12T16:46:34.761Z,1.10
2022-09-12T16:52:21.415Z,0.70
2022-09-12T16:58:08.012Z,5.30
2022-09-12T17:03:59.210Z,1.58
2022-09-12T17:09:48.034Z,2.00
2022-09-12T17:15:36.933Z,2.65
2022-09-12T17:21:23.829Z,4.95
2022-09-12T17:27:10.472Z,2.42
2022-09-12T17:32:57.182Z,1.17
2022-09-12T17:38:45.907Z,4.85
2022-09-12T17:44:35.471Z,3.72
2022-09-12T17:50:31.830Z,1.80
2022-09-12T17:56:20.350Z,5.53
2022-09-12T18:02:16.115Z,2.15
2022-09-12T18:08:02.705Z,14.90
2022-09-12T18:13:49.374Z,2.63
2022-09-12T18:19:36.309Z,2.55
2022-09-12T18:25:23.221Z,1.48
2022-09-12T18:31:16.119Z,3.58
2022-09-12T18:37:05.247Z,4.78
2022-09-12T18:42:52.996Z,4.05
2022-09-12T18:48:42.247Z,4.72
2022-09-12T18:54:29.343Z,15.57
2022-09-12T19:00:17.081Z,3.20
2022-09-12T19:06:12.876Z,1.88
2022-09-12T19:11:59.582Z,3.25
2022-09-12T19:17:46.257Z,2.33
2022-09-12T19:23:35.355Z,1.67
2022-09-12T19:29:22.114Z,1.83
2022-09-12T19:35:09.357Z,1.98
2022-09-12T19:40:58.001Z,2.25
2022-09-12T19:46:45.353Z,6.05
2022-09-12T19:52:32.025Z,2.22
2022-09-12T19:58:18.622Z,1.20
2022-09-12T20:04:06.813Z,3.00
2022-09-12T20:09:54.952Z,3.38
2022-09-12T20:15:41.583Z,6.18
2022-09-12T20:21:32.088Z,2.38
2022-09-12T20:27:18.979Z,2.17
2022-09-12T20:33:05.937Z,4.30
2022-09-12T20:38:56.930Z,2.70
2022-09-12T20:44:43.687Z,6.63
2022-09-12T20:50:30.275Z,4.57
2022-09-12T20:56:16.860Z,6.07
2022-09-12T21:02:03.508Z,2.95
2022-09-12T21:07:50.135Z,3.65
2022-09-12T21:13:37.093Z,9.77
2022-09-12T21:19:23.739Z,6.68
2022-09-12T21:25:10.878Z,4.07
2022-09-12T21:30:57.686Z,5.20
2022-09-12T21:36:44.494Z,4.75
2022-09-12T21:42:31.796Z,5.88
2022-09-12T21:48:18.426Z,5.70
2022-09-12T21:54:05.148Z,7.55
2022-09-12T21:59:51.876Z,7.00
2022-09-12T22:05:40.169Z,14.43
2022-09-12T22:11:27.055Z,7.55
2022-09-12T22:17:14.275Z,8.85
2022-09-12T22:23:24.388Z,10.68
2022-09-12T22:29:13.308Z,7.05
2022-09-12T22:35:00.008Z,5.15
2022-09-12T22:40:46.578Z,5.18
2022-09-12T22:46:33.753Z,5.57
2022-09-12T22:52:20.435Z,7.93
2022-09-12T22:58:07.141Z,8.90
2022-09-12T23:03:54.022Z,5.40
2022-09-12T23:09:41.281Z,12.05
2022-09-12T23:15:28.255Z,5.35
2022-09-12T23:21:16.802Z,12.82
2022-09-12T23:27:03.401Z,6.32
2022-09-12T23:32:50.295Z,12.02
2022-09-12T23:38:37.004Z,7.15
2022-09-12T23:44:23.755Z,6.60
2022-09-12T23:50:10.378Z,3.63
2022-09-12T23:55:57.616Z,10.07
